sensor_id;sensor_type;location;lat;lon;timestamp;P1;durP1;ratioP1;P2;durP2;ratioP2
3567;SDS011;1798;48.486;9.232;2022-07-26T00:00:48;14.63;;;5.40;;
3567;SDS011;1798;48.486;9.232;2022-07-26T00:03:15;24.93;;;5.67;;
3567;SDS011;1798;48.486;9.232;2022-07-26T00:05:47;12.87;;;5.07;;
3567;SDS011;1798;48.486;9.232;2022-07-26T00:08:17;17.90;;;4.33;;
3567;SDS011;1798;48.486;9.232;2022-07-26T00:10:48;13.83;;;5.03;;
3567;SDS011;1798;48.486;9.232;2022-07-26T00:13:19;11.23;;;7.27;;
3567;SDS011;1798;48.486;9.232;2022-07-26T00:18:25;13.80;;;7.30;;
3567;SDS011;1798;48.486;9.232;2022-07-26T00:20:53;11.93;;;8.23;;
3567;SDS011;1798;48.486;9.232;2022-07-26T00:23:24;11.90;;;7.90;;
3567;SDS011;1798;48.486;9.232;2022-07-26T00:30:55;21.53;;;7.07;;
3567;SDS011;1798;48.486;9.232;2022-07-26T00:33:22;14.40;;;5.60;;
3567;SDS011;1798;48.486;9.232;2022-07-26T00:35:49;9.37;;;6.07;;
3567;SDS011;1798;48.486;9.232;2022-07-26T00:38:17;10.13;;;6.83;;
3567;SDS011;1798;48.486;9.232;2022-07-26T00:40:45;16.60;;;7.43;;
3567;SDS011;1798;48.486;9.232;2022-07-26T00:43:15;11.40;;;7.40;;
3567;SDS011;1798;48.486;9.232;2022-07-26T00:45:48;13.50;;;7.10;;
3567;SDS011;1798;48.486;9.232;2022-07-26T00:48:15;14.10;;;6.67;;
3567;SDS011;1798;48.486;9.232;2022-07-26T00:50:45;10.70;;;6.67;;
3567;SDS011;1798;48.486;9.232;2022-07-26T00:58:18;12.27;;;6.50;;
3567;SDS011;1798;48.486;9.232;2022-07-26T01:00:45;8.73;;;6.60;;
3567;SDS011;1798;48.486;9.232;2022-07-26T01:03:15;14.10;;;7.50;;
3567;SDS011;1798;48.486;9.232;2022-07-26T01:05:42;13.40;;;7.40;;
3567;SDS011;1798;48.486;9.232;2022-07-26T01:08:13;11.53;;;5.87;;
3567;SDS011;1798;48.486;9.232;2022-07-26T01:10:47;11.40;;;7.23;;
3567;SDS011;1798;48.486;9.232;2022-07-26T01:15:49;15.90;;;6.20;;
3567;SDS011;1798;48.486;9.232;2022-07-26T01:18:16;9.93;;;4.43;;
3567;SDS011;1798;48.486;9.232;2022-07-26T01:20:43;12.50;;;5.70;;
3567;SDS011;1798;48.486;9.232;2022-07-26T01:23:12;11.73;;;6.83;;
3567;SDS011;1798;48.486;9.232;2022-07-26T01:33:28;9.17;;;5.07;;
3567;SDS011;1798;48.486;9.232;2022-07-26T01:35:55;11.00;;;6.27;;
3567;SDS011;1798;48.486;9.232;2022-07-26T01:38:25;10.27;;;6.40;;
3567;SDS011;1798;48.486;9.232;2022-07-26T01:48:44;11.03;;;5.17;;
3567;SDS011;1798;48.486;9.232;2022-07-26T01:51:10;8.90;;;6.30;;
3567;SDS011;1798;48.486;9.232;2022-07-26T01:53:45;12.90;;;6.20;;
3567;SDS011;1798;48.486;9.232;2022-07-26T01:56:15;9.47;;;6.37;;
3567;SDS011;1798;48.486;9.232;2022-07-26T01:58:48;12.10;;;6.57;;
3567;SDS011;1798;48.486;9.232;2022-07-26T02:01:22;9.20;;;6.00;;
3567;SDS011;1798;48.486;9.232;2022-07-26T02:12:06;10.53;;;5.50;;
3567;SDS011;1798;48.486;9.232;2022-07-26T02:14:33;7.77;;;4.20;;
3567;SDS011;1798;48.486;9.232;2022-07-26T02:17:04;8.87;;;5.90;;
3567;SDS011;1798;48.486;9.232;2022-07-26T02:19:35;9.23;;;6.50;;
3567;SDS011;1798;48.486;9.232;2022-07-26T02:22:06;8.27;;;5.30;;
3567;SDS011;1798;48.486;9.232;2022-07-26T02:24:33;8.90;;;5.90;;
3567;SDS011;1798;48.486;9.232;2022-07-26T02:29:42;7.43;;;4.60;;
3567;SDS011;1798;48.486;9.232;2022-07-26T02:32:09;7.37;;;3.90;;
3567;SDS011;1798;48.486;9.232;2022-07-26T02:34:37;13.10;;;6.47;;
3567;SDS011;1798;48.486;9.232;2022-07-26T02:37:04;9.60;;;4.20;;
3567;SDS011;1798;48.486;9.232;2022-07-26T02:39:30;9.30;;;5.50;;
3567;SDS011;1798;48.486;9.232;2022-07-26T02:41:58;10.03;;;5.53;;
3567;SDS011;1798;48.486;9.232;2022-07-26T02:44:26;6.83;;;4.30;;
3567;SDS011;1798;48.486;9.232;2022-07-26T02:46:54;9.00;;;6.03;;
3567;SDS011;1798;48.486;9.232;2022-07-26T02:49:25;10.13;;;4.00;;
3567;SDS011;1798;48.486;9.232;2022-07-26T02:54:29;10.30;;;5.97;;
3567;SDS011;1798;48.486;9.232;2022-07-26T02:56:56;7.37;;;4.90;;
3567;SDS011;1798;48.486;9.232;2022-07-26T02:59:23;9.33;;;5.70;;
3567;SDS011;1798;48.486;9.232;2022-07-26T03:01:50;7.33;;;4.60;;
3567;SDS011;1798;48.486;9.232;2022-07-26T03:07:14;7.77;;;4.53;;
3567;SDS011;1798;48.486;9.232;2022-07-26T03:09:40;7.50;;;5.50;;
3567;SDS011;1798;48.486;9.232;2022-07-26T03:12:07;10.07;;;3.60;;
3567;SDS011;1798;48.486;9.232;2022-07-26T03:14:36;14.63;;;4.87;;
3567;SDS011;1798;48.486;9.232;2022-07-26T03:17:07;6.47;;;4.00;;
3567;SDS011;1798;48.486;9.232;2022-07-26T03:22:09;9.30;;;5.50;;
3567;SDS011;1798;48.486;9.232;2022-07-26T03:24:36;7.33;;;4.23;;
3567;SDS011;1798;48.486;9.232;2022-07-26T03:27:03;7.10;;;4.17;;
3567;SDS011;1798;48.486;9.232;2022-07-26T03:29:30;8.90;;;4.97;;
3567;SDS011;1798;48.486;9.232;2022-07-26T03:32:00;12.20;;;4.00;;
3567;SDS011;1798;48.486;9.232;2022-07-26T03:34:34;6.77;;;4.73;;
3567;SDS011;1798;48.486;9.232;2022-07-26T03:37:04;6.30;;;4.70;;
3567;SDS011;1798;48.486;9.232;2022-07-26T03:39:38;6.47;;;3.80;;
3567;SDS011;1798;48.486;9.232;2022-07-26T03:44:44;9.20;;;4.80;;
3567;SDS011;1798;48.486;9.232;2022-07-26T03:47:11;8.23;;;4.33;;
3567;SDS011;1798;48.486;9.232;2022-07-26T03:49:41;5.97;;;4.07;;
3567;SDS011;1798;48.486;9.232;2022-07-26T03:52:06;7.63;;;4.40;;
3567;SDS011;1798;48.486;9.232;2022-07-26T03:54:34;12.93;;;6.30;;
3567;SDS011;1798;48.486;9.232;2022-07-26T03:57:04;7.23;;;4.80;;
3567;SDS011;1798;48.486;9.232;2022-07-26T03:59:30;6.50;;;5.10;;
3567;SDS011;1798;48.486;9.232;2022-07-26T04:07:10;8.73;;;5.37;;
3567;SDS011;1798;48.486;9.232;2022-07-26T04:09:37;7.17;;;4.40;;
3567;SDS011;1798;48.486;9.232;2022-07-26T04:12:05;7.80;;;4.37;;
3567;SDS011;1798;48.486;9.232;2022-07-26T04:14:32;6.90;;;4.73;;
3567;SDS011;1798;48.486;9.232;2022-07-26T04:16:59;6.50;;;3.20;;
3567;SDS011;1798;48.486;9.232;2022-07-26T04:19:29;5.27;;;2.87;;
3567;SDS011;1798;48.486;9.232;2022-07-26T04:21:56;7.10;;;5.00;;
3567;SDS011;1798;48.486;9.232;2022-07-26T04:24:33;6.00;;;4.20;;
3567;SDS011;1798;48.486;9.232;2022-07-26T04:27:00;8.70;;;4.87;;
3567;SDS011;1798;48.486;9.232;2022-07-26T04:32:00;7.57;;;3.80;;
3567;SDS011;1798;48.486;9.232;2022-07-26T04:34:27;11.40;;;5.20;;
3567;SDS011;1798;48.486;9.232;2022-07-26T04:36:58;8.37;;;4.37;;
3567;SDS011;1798;48.486;9.232;2022-07-26T04:41:59;7.40;;;5.10;;
3567;SDS011;1798;48.486;9.232;2022-07-26T04:44:25;7.40;;;4.57;;
3567;SDS011;1798;48.486;9.232;2022-07-26T04:46:51;6.90;;;4.80;;
3567;SDS011;1798;48.486;9.232;2022-07-26T04:49:20;8.10;;;4.67;;
3567;SDS011;1798;48.486;9.232;2022-07-26T04:51:50;7.20;;;4.03;;
3567;SDS011;1798;48.486;9.232;2022-07-26T04:54:17;7.00;;;4.53;;
3567;SDS011;1798;48.486;9.232;2022-07-26T04:56:47;7.00;;;4.53;;
3567;SDS011;1798;48.486;9.232;2022-07-26T04:59:19;8.07;;;4.37;;
3567;SDS011;1798;48.486;9.232;2022-07-26T05:07:02;7.43;;;4.70;;
3567;SDS011;1798;48.486;9.232;2022-07-26T05:09:29;6.70;;;4.47;;
3567;SDS011;1798;48.486;9.232;2022-07-26T05:11:56;7.30;;;4.63;;
3567;SDS011;1798;48.486;9.232;2022-07-26T05:14:23;6.57;;;4.90;;
3567;SDS011;1798;48.486;9.232;2022-07-26T05:16:51;8.60;;;5.20;;
3567;SDS011;1798;48.486;9.232;2022-07-26T05:19:21;7.17;;;4.40;;
3567;SDS011;1798;48.486;9.232;2022-07-26T05:21:48;8.77;;;3.30;;
3567;SDS011;1798;48.486;9.232;2022-07-26T05:24:17;7.00;;;4.40;;
3567;SDS011;1798;48.486;9.232;2022-07-26T05:26:44;17.93;;;4.47;;
3567;SDS011;1798;48.486;9.232;2022-07-26T05:29:14;8.00;;;3.63;;
3567;SDS011;1798;48.486;9.232;2022-07-26T05:31:40;16.63;;;4.60;;
3567;SDS011;1798;48.486;9.232;2022-07-26T05:34:07;6.27;;;4.13;;
3567;SDS011;1798;48.486;9.232;2022-07-26T05:36:34;7.73;;;4.67;;
3567;SDS011;1798;48.486;9.232;2022-07-26T05:39:05;9.30;;;4.70;;
3567;SDS011;1798;48.486;9.232;2022-07-26T05:41:33;6.10;;;4.20;;
3567;SDS011;1798;48.486;9.232;2022-07-26T05:44:00;10.20;;;5.40;;
3567;SDS011;1798;48.486;9.232;2022-07-26T05:46:27;10.23;;;6.00;;
3567;SDS011;1798;48.486;9.232;2022-07-26T05:48:55;7.90;;;4.87;;
3567;SDS011;1798;48.486;9.232;2022-07-26T05:51:22;7.10;;;4.67;;
3567;SDS011;1798;48.486;9.232;2022-07-26T05:53:50;6.20;;;4.37;;
3567;SDS011;1798;48.486;9.232;2022-07-26T05:56:17;5.77;;;4.17;;
3567;SDS011;1798;48.486;9.232;2022-07-26T05:58:47;8.47;;;5.53;;
3567;SDS011;1798;48.486;9.232;2022-07-26T06:01:15;6.53;;;4.43;;
3567;SDS011;1798;48.486;9.232;2022-07-26T06:03:44;10.03;;;4.47;;
3567;SDS011;1798;48.486;9.232;2022-07-26T06:06:11;7.60;;;3.43;;
3567;SDS011;1798;48.486;9.232;2022-07-26T06:08:45;6.00;;;3.80;;
3567;SDS011;1798;48.486;9.232;2022-07-26T06:11:15;6.40;;;4.00;;
3567;SDS011;1798;48.486;9.232;2022-07-26T06:13:49;6.20;;;4.20;;
3567;SDS011;1798;48.486;9.232;2022-07-26T06:16:19;6.57;;;4.37;;
3567;SDS011;1798;48.486;9.232;2022-07-26T06:19:00;6.00;;;4.00;;
3567;SDS011;1798;48.486;9.232;2022-07-26T06:21:27;6.77;;;4.27;;
3567;SDS011;1798;48.486;9.232;2022-07-26T06:23:54;6.90;;;4.20;;
3567;SDS011;1798;48.486;9.232;2022-07-26T06:26:21;9.73;;;4.30;;
3567;SDS011;1798;48.486;9.232;2022-07-26T06:28:56;7.73;;;3.80;;
3567;SDS011;1798;48.486;9.232;2022-07-26T06:31:23;8.00;;;5.00;;
3567;SDS011;1798;48.486;9.232;2022-07-26T06:33:58;9.20;;;5.00;;
3567;SDS011;1798;48.486;9.232;2022-07-26T06:36:27;6.50;;;4.43;;
3567;SDS011;1798;48.486;9.232;2022-07-26T06:38:57;8.80;;;4.30;;
3567;SDS011;1798;48.486;9.232;2022-07-26T06:41:27;5.90;;;3.97;;
3567;SDS011;1798;48.486;9.232;2022-07-26T06:43:53;5.43;;;3.30;;
3567;SDS011;1798;48.486;9.232;2022-07-26T06:46:21;5.70;;;3.97;;
3567;SDS011;1798;48.486;9.232;2022-07-26T06:48:48;6.77;;;4.30;;
3567;SDS011;1798;48.486;9.232;2022-07-26T06:51:16;7.70;;;4.50;;
3567;SDS011;1798;48.486;9.232;2022-07-26T06:53:46;6.40;;;4.50;;
3567;SDS011;1798;48.486;9.232;2022-07-26T06:56:17;8.70;;;3.97;;
3567;SDS011;1798;48.486;9.232;2022-07-26T06:58:44;8.77;;;4.73;;
3567;SDS011;1798;48.486;9.232;2022-07-26T07:01:11;5.93;;;4.00;;
3567;SDS011;1798;48.486;9.232;2022-07-26T07:03:44;7.10;;;4.10;;
3567;SDS011;1798;48.486;9.232;2022-07-26T07:06:14;7.67;;;4.03;;
3567;SDS011;1798;48.486;9.232;2022-07-26T07:11:14;8.53;;;4.33;;
3567;SDS011;1798;48.486;9.232;2022-07-26T07:13:41;7.33;;;5.00;;
3567;SDS011;1798;48.486;9.232;2022-07-26T07:16:25;8.23;;;3.97;;
3567;SDS011;1798;48.486;9.232;2022-07-26T07:21:44;12.40;;;4.30;;
3567;SDS011;1798;48.486;9.232;2022-07-26T07:24:11;7.40;;;4.80;;
3567;SDS011;1798;48.486;9.232;2022-07-26T07:26:38;8.47;;;4.37;;
3567;SDS011;1798;48.486;9.232;2022-07-26T07:29:05;9.20;;;4.30;;
3567;SDS011;1798;48.486;9.232;2022-07-26T07:31:34;10.70;;;4.57;;
3567;SDS011;1798;48.486;9.232;2022-07-26T07:34:01;9.90;;;4.53;;
3567;SDS011;1798;48.486;9.232;2022-07-26T07:41:45;6.60;;;4.20;;
3567;SDS011;1798;48.486;9.232;2022-07-26T07:44:13;9.90;;;4.80;;
3567;SDS011;1798;48.486;9.232;2022-07-26T07:46:40;10.03;;;5.00;;
3567;SDS011;1798;48.486;9.232;2022-07-26T07:49:10;13.30;;;4.23;;
3567;SDS011;1798;48.486;9.232;2022-07-26T07:51:43;15.63;;;4.80;;
3567;SDS011;1798;48.486;9.232;2022-07-26T07:54:10;7.90;;;4.20;;
3567;SDS011;1798;48.486;9.232;2022-07-26T07:56:40;13.80;;;4.70;;
3567;SDS011;1798;48.486;9.232;2022-07-26T07:59:12;7.10;;;4.40;;
3567;SDS011;1798;48.486;9.232;2022-07-26T08:01:39;7.23;;;4.30;;
3567;SDS011;1798;48.486;9.232;2022-07-26T08:04:10;18.63;;;4.90;;
3567;SDS011;1798;48.486;9.232;2022-07-26T08:06:41;6.53;;;4.17;;
3567;SDS011;1798;48.486;9.232;2022-07-26T08:09:11;6.07;;;4.47;;
3567;SDS011;1798;48.486;9.232;2022-07-26T08:11:45;6.40;;;3.90;;
3567;SDS011;1798;48.486;9.232;2022-07-26T08:14:13;6.30;;;4.27;;
3567;SDS011;1798;48.486;9.232;2022-07-26T08:16:43;7.27;;;4.47;;
3567;SDS011;1798;48.486;9.232;2022-07-26T08:19:11;7.13;;;4.10;;
3567;SDS011;1798;48.486;9.232;2022-07-26T08:21:41;17.03;;;4.80;;
3567;SDS011;1798;48.486;9.232;2022-07-26T08:24:11;6.67;;;4.23;;
3567;SDS011;1798;48.486;9.232;2022-07-26T08:26:42;11.00;;;4.00;;
3567;SDS011;1798;48.486;9.232;2022-07-26T08:29:19;6.40;;;4.17;;
3567;SDS011;1798;48.486;9.232;2022-07-26T08:31:46;6.40;;;4.03;;
3567;SDS011;1798;48.486;9.232;2022-07-26T08:34:14;7.37;;;3.80;;
3567;SDS011;1798;48.486;9.232;2022-07-26T08:36:41;6.97;;;3.83;;
3567;SDS011;1798;48.486;9.232;2022-07-26T08:39:12;6.77;;;4.20;;
3567;SDS011;1798;48.486;9.232;2022-07-26T08:41:41;9.40;;;3.93;;
3567;SDS011;1798;48.486;9.232;2022-07-26T08:44:08;6.87;;;3.47;;
3567;SDS011;1798;48.486;9.232;2022-07-26T08:46:38;6.60;;;4.17;;
3567;SDS011;1798;48.486;9.232;2022-07-26T08:49:10;5.73;;;3.87;;
3567;SDS011;1798;48.486;9.232;2022-07-26T08:56:49;14.50;;;4.30;;
3567;SDS011;1798;48.486;9.232;2022-07-26T08:59:17;10.50;;;4.70;;
3567;SDS011;1798;48.486;9.232;2022-07-26T09:01:54;7.13;;;3.90;;
3567;SDS011;1798;48.486;9.232;2022-07-26T09:04:32;6.77;;;3.80;;
3567;SDS011;1798;48.486;9.232;2022-07-26T09:07:05;14.53;;;3.93;;
3567;SDS011;1798;48.486;9.232;2022-07-26T09:09:35;7.90;;;4.20;;
3567;SDS011;1798;48.486;9.232;2022-07-26T09:12:12;6.73;;;3.97;;
3567;SDS011;1798;48.486;9.232;2022-07-26T09:14:41;10.60;;;4.43;;
3567;SDS011;1798;48.486;9.232;2022-07-26T09:17:13;6.93;;;4.40;;
3567;SDS011;1798;48.486;9.232;2022-07-26T09:19:41;7.27;;;3.90;;
3567;SDS011;1798;48.486;9.232;2022-07-26T09:22:09;10.77;;;4.00;;
3567;SDS011;1798;48.486;9.232;2022-07-26T09:24:37;8.20;;;3.80;;
3567;SDS011;1798;48.486;9.232;2022-07-26T09:27:07;7.70;;;3.43;;
3567;SDS011;1798;48.486;9.232;2022-07-26T09:29:42;5.93;;;4.13;;
3567;SDS011;1798;48.486;9.232;2022-07-26T09:32:10;8.60;;;4.57;;
3567;SDS011;1798;48.486;9.232;2022-07-26T09:34:48;9.73;;;4.30;;
3567;SDS011;1798;48.486;9.232;2022-07-26T09:37:33;9.40;;;3.40;;
3567;SDS011;1798;48.486;9.232;2022-07-26T09:40:03;17.53;;;4.13;;
3567;SDS011;1798;48.486;9.232;2022-07-26T09:42:35;5.87;;;3.70;;
3567;SDS011;1798;48.486;9.232;2022-07-26T09:45:13;20.73;;;5.00;;
3567;SDS011;1798;48.486;9.232;2022-07-26T10:08:44;7.23;;;3.93;;
3567;SDS011;1798;48.486;9.232;2022-07-26T10:11:16;6.90;;;3.47;;
3567;SDS011;1798;48.486;9.232;2022-07-26T10:13:44;5.60;;;3.50;;
3567;SDS011;1798;48.486;9.232;2022-07-26T10:18:55;5.93;;;3.67;;
3567;SDS011;1798;48.486;9.232;2022-07-26T10:21:23;6.67;;;4.10;;
3567;SDS011;1798;48.486;9.232;2022-07-26T10:23:55;6.20;;;3.50;;
3567;SDS011;1798;48.486;9.232;2022-07-26T10:26:38;6.03;;;3.43;;
3567;SDS011;1798;48.486;9.232;2022-07-26T10:29:23;7.67;;;3.60;;
3567;SDS011;1798;48.486;9.232;2022-07-26T10:34:44;8.83;;;3.03;;
3567;SDS011;1798;48.486;9.232;2022-07-26T10:37:26;7.10;;;3.83;;
3567;SDS011;1798;48.486;9.232;2022-07-26T10:40:20;5.97;;;3.67;;
3567;SDS011;1798;48.486;9.232;2022-07-26T10:42:49;10.83;;;5.60;;
3567;SDS011;1798;48.486;9.232;2022-07-26T10:45:21;34.10;;;3.47;;
3567;SDS011;1798;48.486;9.232;2022-07-26T10:50:38;6.93;;;3.90;;
3567;SDS011;1798;48.486;9.232;2022-07-26T10:53:06;15.00;;;3.50;;
3567;SDS011;1798;48.486;9.232;2022-07-26T10:55:48;9.73;;;3.40;;
3567;SDS011;1798;48.486;9.232;2022-07-26T10:58:25;7.23;;;3.73;;
3567;SDS011;1798;48.486;9.232;2022-07-26T11:00:56;5.87;;;3.23;;
3567;SDS011;1798;48.486;9.232;2022-07-26T11:03:35;8.77;;;3.27;;
3567;SDS011;1798;48.486;9.232;2022-07-26T11:06:10;6.03;;;3.67;;
3567;SDS011;1798;48.486;9.232;2022-07-26T11:08:37;6.03;;;2.97;;
3567;SDS011;1798;48.486;9.232;2022-07-26T11:11:06;14.17;;;3.83;;
3567;SDS011;1798;48.486;9.232;2022-07-26T11:13:40;18.03;;;4.00;;
3567;SDS011;1798;48.486;9.232;2022-07-26T11:16:11;7.00;;;3.60;;
3567;SDS011;1798;48.486;9.232;2022-07-26T11:18:42;8.60;;;3.57;;
3567;SDS011;1798;48.486;9.232;2022-07-26T11:28:51;9.50;;;3.93;;
3567;SDS011;1798;48.486;9.232;2022-07-26T11:31:23;6.70;;;3.20;;
3567;SDS011;1798;48.486;9.232;2022-07-26T11:33:52;10.70;;;3.80;;
3567;SDS011;1798;48.486;9.232;2022-07-26T11:36:30;8.33;;;4.67;;
3567;SDS011;1798;48.486;9.232;2022-07-26T11:39:01;7.00;;;3.10;;
3567;SDS011;1798;48.486;9.232;2022-07-26T11:41:37;7.80;;;3.03;;
3567;SDS011;1798;48.486;9.232;2022-07-26T11:44:17;5.43;;;3.10;;
3567;SDS011;1798;48.486;9.232;2022-07-26T11:46:45;8.07;;;4.00;;
3567;SDS011;1798;48.486;9.232;2022-07-26T11:49:18;7.63;;;3.50;;
3567;SDS011;1798;48.486;9.232;2022-07-26T11:51:50;7.77;;;3.43;;
3567;SDS011;1798;48.486;9.232;2022-07-26T11:59:33;4.57;;;2.63;;
3567;SDS011;1798;48.486;9.232;2022-07-26T12:02:03;6.47;;;3.50;;
3567;SDS011;1798;48.486;9.232;2022-07-26T12:04:31;8.17;;;3.33;;
3567;SDS011;1798;48.486;9.232;2022-07-26T12:06:59;9.80;;;3.00;;
3567;SDS011;1798;48.486;9.232;2022-07-26T12:09:29;7.27;;;2.70;;
3567;SDS011;1798;48.486;9.232;2022-07-26T12:11:57;7.00;;;3.37;;
3567;SDS011;1798;48.486;9.232;2022-07-26T12:14:24;7.97;;;3.47;;
3567;SDS011;1798;48.486;9.232;2022-07-26T12:16:53;6.27;;;3.43;;
3567;SDS011;1798;48.486;9.232;2022-07-26T12:19:27;6.60;;;3.53;;
3567;SDS011;1798;48.486;9.232;2022-07-26T12:21:55;6.77;;;3.23;;
3567;SDS011;1798;48.486;9.232;2022-07-26T12:24:34;8.10;;;3.30;;
3567;SDS011;1798;48.486;9.232;2022-07-26T12:27:06;5.63;;;3.03;;
3567;SDS011;1798;48.486;9.232;2022-07-26T12:29:35;6.93;;;3.53;;
3567;SDS011;1798;48.486;9.232;2022-07-26T12:32:11;6.73;;;3.37;;
3567;SDS011;1798;48.486;9.232;2022-07-26T12:34:39;5.70;;;3.00;;
3567;SDS011;1798;48.486;9.232;2022-07-26T12:37:08;8.47;;;3.40;;
3567;SDS011;1798;48.486;9.232;2022-07-26T12:39:37;5.17;;;2.63;;
3567;SDS011;1798;48.486;9.232;2022-07-26T12:42:20;6.73;;;2.93;;
3567;SDS011;1798;48.486;9.232;2022-07-26T12:44:50;5.27;;;3.00;;
3567;SDS011;1798;48.486;9.232;2022-07-26T12:47:18;10.13;;;3.40;;
3567;SDS011;1798;48.486;9.232;2022-07-26T12:49:50;9.00;;;3.43;;
3567;SDS011;1798;48.486;9.232;2022-07-26T12:52:19;6.90;;;2.93;;
3567;SDS011;1798;48.486;9.232;2022-07-26T12:54:52;7.30;;;3.00;;
3567;SDS011;1798;48.486;9.232;2022-07-26T12:57:22;6.70;;;3.63;;
3567;SDS011;1798;48.486;9.232;2022-07-26T12:59:55;5.40;;;3.00;;
3567;SDS011;1798;48.486;9.232;2022-07-26T13:02:25;7.10;;;3.30;;
3567;SDS011;1798;48.486;9.232;2022-07-26T13:04:55;5.83;;;3.27;;
3567;SDS011;1798;48.486;9.232;2022-07-26T13:07:22;5.47;;;2.33;;
3567;SDS011;1798;48.486;9.232;2022-07-26T13:09:49;4.70;;;2.70;;
3567;SDS011;1798;48.486;9.232;2022-07-26T13:12:22;6.77;;;3.00;;
3567;SDS011;1798;48.486;9.232;2022-07-26T13:14:58;7.80;;;3.17;;
3567;SDS011;1798;48.486;9.232;2022-07-26T13:17:26;6.60;;;3.90;;
3567;SDS011;1798;48.486;9.232;2022-07-26T13:20:00;6.27;;;3.10;;
3567;SDS011;1798;48.486;9.232;2022-07-26T13:22:27;11.90;;;3.20;;
3567;SDS011;1798;48.486;9.232;2022-07-26T13:24:54;7.73;;;2.57;;
3567;SDS011;1798;48.486;9.232;2022-07-26T13:27:27;5.13;;;2.83;;
3567;SDS011;1798;48.486;9.232;2022-07-26T13:29:59;4.40;;;3.00;;
3567;SDS011;1798;48.486;9.232;2022-07-26T13:32:28;7.27;;;2.73;;
3567;SDS011;1798;48.486;9.232;2022-07-26T13:34:55;5.57;;;2.50;;
3567;SDS011;1798;48.486;9.232;2022-07-26T13:37:27;5.40;;;2.50;;
3567;SDS011;1798;48.486;9.232;2022-07-26T13:39:57;7.20;;;3.10;;
3567;SDS011;1798;48.486;9.232;2022-07-26T13:45:04;6.80;;;2.67;;
3567;SDS011;1798;48.486;9.232;2022-07-26T13:47:32;7.83;;;3.10;;
3567;SDS011;1798;48.486;9.232;2022-07-26T13:49:59;8.30;;;3.00;;
3567;SDS011;1798;48.486;9.232;2022-07-26T13:52:28;8.50;;;3.00;;
3567;SDS011;1798;48.486;9.232;2022-07-26T13:54:56;14.77;;;2.70;;
3567;SDS011;1798;48.486;9.232;2022-07-26T13:57:34;7.00;;;3.70;;
3567;SDS011;1798;48.486;9.232;2022-07-26T14:00:05;5.10;;;2.80;;
3567;SDS011;1798;48.486;9.232;2022-07-26T14:02:32;6.77;;;3.33;;
3567;SDS011;1798;48.486;9.232;2022-07-26T14:04:59;8.20;;;2.90;;
3567;SDS011;1798;48.486;9.232;2022-07-26T14:07:30;9.20;;;3.30;;
3567;SDS011;1798;48.486;9.232;2022-07-26T14:10:01;8.60;;;3.13;;
3567;SDS011;1798;48.486;9.232;2022-07-26T14:12:29;19.80;;;3.00;;
3567;SDS011;1798;48.486;9.232;2022-07-26T14:15:01;7.10;;;2.37;;
3567;SDS011;1798;48.486;9.232;2022-07-26T14:17:29;6.67;;;2.67;;
3567;SDS011;1798;48.486;9.232;2022-07-26T14:19:57;6.03;;;2.73;;
3567;SDS011;1798;48.486;9.232;2022-07-26T14:22:35;7.30;;;3.10;;
3567;SDS011;1798;48.486;9.232;2022-07-26T14:27:40;5.63;;;3.20;;
3567;SDS011;1798;48.486;9.232;2022-07-26T14:30:07;6.77;;;2.97;;
3567;SDS011;1798;48.486;9.232;2022-07-26T14:32:35;5.43;;;2.73;;
3567;SDS011;1798;48.486;9.232;2022-07-26T14:35:03;5.97;;;3.10;;
3567;SDS011;1798;48.486;9.232;2022-07-26T14:37:35;10.70;;;2.93;;
3567;SDS011;1798;48.486;9.232;2022-07-26T14:43:04;7.93;;;2.83;;
3567;SDS011;1798;48.486;9.232;2022-07-26T14:45:31;6.33;;;2.83;;
3567;SDS011;1798;48.486;9.232;2022-07-26T14:47:58;5.53;;;2.90;;
3567;SDS011;1798;48.486;9.232;2022-07-26T14:50:26;11.30;;;3.33;;
3567;SDS011;1798;48.486;9.232;2022-07-26T14:58:08;7.67;;;2.53;;
3567;SDS011;1798;48.486;9.232;2022-07-26T15:00:35;17.60;;;3.90;;
3567;SDS011;1798;48.486;9.232;2022-07-26T15:03:07;5.90;;;2.70;;
3567;SDS011;1798;48.486;9.232;2022-07-26T15:05:50;6.17;;;2.50;;
3567;SDS011;1798;48.486;9.232;2022-07-26T15:08:17;4.47;;;2.83;;
3567;SDS011;1798;48.486;9.232;2022-07-26T15:10:48;6.03;;;2.63;;
3567;SDS011;1798;48.486;9.232;2022-07-26T15:13:18;4.13;;;2.23;;
3567;SDS011;1798;48.486;9.232;2022-07-26T15:15:45;7.20;;;3.20;;
3567;SDS011;1798;48.486;9.232;2022-07-26T15:18:13;14.63;;;3.13;;
3567;SDS011;1798;48.486;9.232;2022-07-26T15:20:40;6.57;;;2.40;;
3567;SDS011;1798;48.486;9.232;2022-07-26T15:23:09;5.20;;;2.77;;
3567;SDS011;1798;48.486;9.232;2022-07-26T15:25:40;5.17;;;2.40;;
3567;SDS011;1798;48.486;9.232;2022-07-26T15:28:13;7.37;;;2.37;;
3567;SDS011;1798;48.486;9.232;2022-07-26T15:35:49;15.53;;;2.90;;
3567;SDS011;1798;48.486;9.232;2022-07-26T15:38:20;5.10;;;2.60;;
3567;SDS011;1798;48.486;9.232;2022-07-26T15:40:47;5.37;;;2.63;;
3567;SDS011;1798;48.486;9.232;2022-07-26T15:43:23;6.10;;;2.90;;
3567;SDS011;1798;48.486;9.232;2022-07-26T15:48:16;4.60;;;2.90;;
3567;SDS011;1798;48.486;9.232;2022-07-26T15:50:43;6.07;;;2.93;;
3567;SDS011;1798;48.486;9.232;2022-07-26T15:53:09;8.00;;;3.00;;
3567;SDS011;1798;48.486;9.232;2022-07-26T15:55:38;7.50;;;2.93;;
3567;SDS011;1798;48.486;9.232;2022-07-26T15:58:04;4.67;;;2.43;;
3567;SDS011;1798;48.486;9.232;2022-07-26T16:00:31;4.37;;;2.30;;
3567;SDS011;1798;48.486;9.232;2022-07-26T16:02:58;5.20;;;2.60;;
3567;SDS011;1798;48.486;9.232;2022-07-26T16:05:25;4.70;;;2.67;;
3567;SDS011;1798;48.486;9.232;2022-07-26T16:07:52;5.20;;;2.70;;
3567;SDS011;1798;48.486;9.232;2022-07-26T16:10:19;7.67;;;2.83;;
3567;SDS011;1798;48.486;9.232;2022-07-26T16:12:47;6.80;;;2.90;;
3567;SDS011;1798;48.486;9.232;2022-07-26T16:15:14;7.90;;;3.23;;
3567;SDS011;1798;48.486;9.232;2022-07-26T16:17:41;4.80;;;2.80;;
3567;SDS011;1798;48.486;9.232;2022-07-26T16:20:09;15.90;;;3.00;;
3567;SDS011;1798;48.486;9.232;2022-07-26T16:22:43;4.90;;;3.10;;
3567;SDS011;1798;48.486;9.232;2022-07-26T16:25:15;4.70;;;3.10;;
3567;SDS011;1798;48.486;9.232;2022-07-26T16:27:42;4.97;;;2.53;;
3567;SDS011;1798;48.486;9.232;2022-07-26T16:30:11;4.70;;;2.67;;
3567;SDS011;1798;48.486;9.232;2022-07-26T16:32:39;9.53;;;3.10;;
3567;SDS011;1798;48.486;9.232;2022-07-26T16:35:15;6.23;;;3.60;;
3567;SDS011;1798;48.486;9.232;2022-07-26T16:37:42;5.03;;;2.53;;
3567;SDS011;1798;48.486;9.232;2022-07-26T16:40:09;4.97;;;2.80;;
3567;SDS011;1798;48.486;9.232;2022-07-26T16:42:36;9.80;;;2.70;;
3567;SDS011;1798;48.486;9.232;2022-07-26T16:45:03;7.13;;;2.93;;
3567;SDS011;1798;48.486;9.232;2022-07-26T16:47:32;5.77;;;3.10;;
3567;SDS011;1798;48.486;9.232;2022-07-26T16:49:59;4.87;;;3.00;;
3567;SDS011;1798;48.486;9.232;2022-07-26T16:52:26;5.30;;;2.77;;
3567;SDS011;1798;48.486;9.232;2022-07-26T16:54:53;4.97;;;2.80;;
3567;SDS011;1798;48.486;9.232;2022-07-26T16:57:25;4.37;;;2.20;;
3567;SDS011;1798;48.486;9.232;2022-07-26T16:59:59;4.57;;;2.50;;
3567;SDS011;1798;48.486;9.232;2022-07-26T17:02:26;4.77;;;2.70;;
3567;SDS011;1798;48.486;9.232;2022-07-26T17:04:54;6.00;;;3.60;;
3567;SDS011;1798;48.486;9.232;2022-07-26T17:07:22;4.20;;;2.40;;
3567;SDS011;1798;48.486;9.232;2022-07-26T17:09:56;5.00;;;2.67;;
3567;SDS011;1798;48.486;9.232;2022-07-26T17:12:27;6.47;;;3.00;;
3567;SDS011;1798;48.486;9.232;2022-07-26T17:14:55;4.33;;;2.57;;
3567;SDS011;1798;48.486;9.232;2022-07-26T17:17:25;5.80;;;3.03;;
3567;SDS011;1798;48.486;9.232;2022-07-26T17:20:01;6.07;;;3.03;;
3567;SDS011;1798;48.486;9.232;2022-07-26T17:22:33;4.67;;;2.50;;
3567;SDS011;1798;48.486;9.232;2022-07-26T17:30:51;4.00;;;2.30;;
3567;SDS011;1798;48.486;9.232;2022-07-26T17:33:18;13.13;;;2.37;;
3567;SDS011;1798;48.486;9.232;2022-07-26T17:35:46;4.73;;;2.63;;
3567;SDS011;1798;48.486;9.232;2022-07-26T17:38:13;4.90;;;2.90;;
3567;SDS011;1798;48.486;9.232;2022-07-26T17:40:41;4.03;;;2.23;;
3567;SDS011;1798;48.486;9.232;2022-07-26T17:43:11;6.33;;;2.63;;
3567;SDS011;1798;48.486;9.232;2022-07-26T17:48:15;4.17;;;2.43;;
3567;SDS011;1798;48.486;9.232;2022-07-26T17:50:42;9.23;;;2.63;;
3567;SDS011;1798;48.486;9.232;2022-07-26T17:53:11;8.57;;;3.43;;
3567;SDS011;1798;48.486;9.232;2022-07-26T17:55:38;7.10;;;2.87;;
3567;SDS011;1798;48.486;9.232;2022-07-26T17:58:10;5.33;;;2.57;;
3567;SDS011;1798;48.486;9.232;2022-07-26T18:00:40;6.70;;;2.87;;
3567;SDS011;1798;48.486;9.232;2022-07-26T18:03:07;6.80;;;2.70;;